sensor_id;sensor_type;location;lat;lon;timestamp;P1;durP1;ratioP1;P2;durP2;ratioP2
22571;SDS011;11452;53.368;14.658;2023-01-01T00:02:30;5.07;;;4.27;;
22571;SDS011;11452;53.368;14.658;2023-01-01T00:07:37;5.00;;;4.60;;
22571;SDS011;11452;53.368;14.658;2023-01-01T00:12:43;5.57;;;4.37;;
22571;SDS011;11452;53.368;14.658;2023-01-01T00:17:48;6.63;;;3.90;;
22571;SDS011;11452;53.368;14.658;2023-01-01T00:22:54;3.87;;;3.37;;
22571;SDS011;11452;53.368;14.658;2023-01-01T00:27:59;7.20;;;4.43;;
22571;SDS011;11452;53.368;14.658;2023-01-01T00:33:05;3.70;;;3.40;;
22571;SDS011;11452;53.368;14.658;2023-01-01T00:38:11;7.67;;;4.10;;
22571;SDS011;11452;53.368;14.658;2023-01-01T00:43:17;4.23;;;3.30;;
22571;SDS011;11452;53.368;14.658;2023-01-01T00:48:22;4.37;;;3.03;;
22571;SDS011;11452;53.368;14.658;2023-01-01T00:53:28;3.63;;;3.20;;
22571;SDS011;11452;53.368;14.658;2023-01-01T00:58:34;4.87;;;3.80;;
22571;SDS011;11452;53.368;14.658;2023-01-01T01:03:39;3.70;;;3.27;;
22571;SDS011;11452;53.368;14.658;2023-01-01T01:08:45;7.17;;;3.80;;
22571;SDS011;11452;53.368;14.658;2023-01-01T01:13:53;8.00;;;3.43;;
22571;SDS011;11452;53.368;14.658;2023-01-01T01:19:00;5.10;;;3.73;;
22571;SDS011;11452;53.368;14.658;2023-01-01T01:24:08;5.70;;;3.80;;
22571;SDS011;11452;53.368;14.658;2023-01-01T01:29:13;5.90;;;3.93;;
22571;SDS011;11452;53.368;14.658;2023-01-01T01:34:19;5.17;;;3.80;;
22571;SDS011;11452;53.368;14.658;2023-01-01T01:39:26;6.17;;;3.43;;
22571;SDS011;11452;53.368;14.658;2023-01-01T01:50:05;5.87;;;4.03;;
22571;SDS011;11452;53.368;14.658;2023-01-01T01:55:13;7.67;;;3.90;;
22571;SDS011;11452;53.368;14.658;2023-01-01T02:00:18;4.57;;;4.17;;
22571;SDS011;11452;53.368;14.658;2023-01-01T02:05:24;7.67;;;4.20;;
22571;SDS011;11452;53.368;14.658;2023-01-01T02:10:30;7.27;;;3.37;;
22571;SDS011;11452;53.368;14.658;2023-01-01T02:15:38;7.73;;;4.43;;
22571;SDS011;11452;53.368;14.658;2023-01-01T02:31:17;5.17;;;4.40;;
22571;SDS011;11452;53.368;14.658;2023-01-01T02:36:27;5.53;;;3.50;;
22571;SDS011;11452;53.368;14.658;2023-01-01T02:41:38;8.53;;;4.10;;
22571;SDS011;11452;53.368;14.658;2023-01-01T02:46:44;6.37;;;4.13;;
22571;SDS011;11452;53.368;14.658;2023-01-01T02:52:08;6.60;;;4.80;;
22571;SDS011;11452;53.368;14.658;2023-01-01T03:08:11;8.00;;;5.83;;
22571;SDS011;11452;53.368;14.658;2023-01-01T03:13:19;9.03;;;6.20;;
22571;SDS011;11452;53.368;14.658;2023-01-01T03:18:28;7.70;;;5.40;;
22571;SDS011;11452;53.368;14.658;2023-01-01T03:23:41;7.73;;;5.57;;
22571;SDS011;11452;53.368;14.658;2023-01-01T03:28:53;6.83;;;5.20;;
22571;SDS011;11452;53.368;14.658;2023-01-01T03:34:01;6.77;;;4.30;;
22571;SDS011;11452;53.368;14.658;2023-01-01T03:39:12;7.23;;;4.37;;
22571;SDS011;11452;53.368;14.658;2023-01-01T03:49:34;5.80;;;4.40;;
22571;SDS011;11452;53.368;14.658;2023-01-01T04:00:12;5.33;;;4.20;;
22571;SDS011;11452;53.368;14.658;2023-01-01T04:05:23;6.83;;;4.83;;
22571;SDS011;11452;53.368;14.658;2023-01-01T04:10:30;5.37;;;3.97;;
22571;SDS011;11452;53.368;14.658;2023-01-01T04:15:38;6.37;;;5.60;;
22571;SDS011;11452;53.368;14.658;2023-01-01T04:20:44;7.03;;;4.17;;
22571;SDS011;11452;53.368;14.658;2023-01-01T04:25:49;6.43;;;3.77;;
22571;SDS011;11452;53.368;14.658;2023-01-01T04:30:56;7.47;;;3.90;;
22571;SDS011;11452;53.368;14.658;2023-01-01T04:36:05;7.27;;;4.23;;
22571;SDS011;11452;53.368;14.658;2023-01-01T04:41:13;6.33;;;3.97;;
22571;SDS011;11452;53.368;14.658;2023-01-01T04:46:19;5.03;;;3.50;;
22571;SDS011;11452;53.368;14.658;2023-01-01T04:51:26;7.20;;;4.10;;
22571;SDS011;11452;53.368;14.658;2023-01-01T04:56:31;6.00;;;3.70;;
22571;SDS011;11452;53.368;14.658;2023-01-01T05:01:37;7.27;;;3.70;;
22571;SDS011;11452;53.368;14.658;2023-01-01T05:06:43;4.77;;;3.13;;
22571;SDS011;11452;53.368;14.658;2023-01-01T05:11:48;6.83;;;3.53;;
22571;SDS011;11452;53.368;14.658;2023-01-01T05:16:54;6.33;;;3.47;;
22571;SDS011;11452;53.368;14.658;2023-01-01T05:21:59;5.90;;;3.90;;
22571;SDS011;11452;53.368;14.658;2023-01-01T05:27:06;5.87;;;3.83;;
22571;SDS011;11452;53.368;14.658;2023-01-01T05:32:12;8.17;;;4.30;;
22571;SDS011;11452;53.368;14.658;2023-01-01T05:37:16;5.90;;;3.70;;
22571;SDS011;11452;53.368;14.658;2023-01-01T05:42:22;7.77;;;4.57;;
22571;SDS011;11452;53.368;14.658;2023-01-01T05:47:27;5.23;;;3.50;;
22571;SDS011;11452;53.368;14.658;2023-01-01T05:52:34;5.17;;;3.43;;
22571;SDS011;11452;53.368;14.658;2023-01-01T05:57:40;7.60;;;3.77;;
22571;SDS011;11452;53.368;14.658;2023-01-01T06:02:46;7.07;;;3.60;;
22571;SDS011;11452;53.368;14.658;2023-01-01T06:07:53;5.60;;;3.00;;
22571;SDS011;11452;53.368;14.658;2023-01-01T06:12:58;5.10;;;3.70;;
22571;SDS011;11452;53.368;14.658;2023-01-01T06:18:04;6.17;;;3.73;;
22571;SDS011;11452;53.368;14.658;2023-01-01T06:23:10;5.27;;;3.37;;
22571;SDS011;11452;53.368;14.658;2023-01-01T06:28:15;3.83;;;3.20;;
22571;SDS011;11452;53.368;14.658;2023-01-01T06:33:20;6.03;;;3.30;;
22571;SDS011;11452;53.368;14.658;2023-01-01T06:38:26;6.27;;;3.23;;
22571;SDS011;11452;53.368;14.658;2023-01-01T06:43:33;7.00;;;3.93;;
22571;SDS011;11452;53.368;14.658;2023-01-01T06:48:39;5.53;;;3.70;;
22571;SDS011;11452;53.368;14.658;2023-01-01T06:53:46;5.63;;;3.10;;
22571;SDS011;11452;53.368;14.658;2023-01-01T06:58:52;5.33;;;3.10;;
22571;SDS011;11452;53.368;14.658;2023-01-01T07:03:58;6.47;;;3.70;;
22571;SDS011;11452;53.368;14.658;2023-01-01T07:09:08;5.30;;;3.60;;
22571;SDS011;11452;53.368;14.658;2023-01-01T07:14:14;6.70;;;4.10;;
22571;SDS011;11452;53.368;14.658;2023-01-01T07:19:19;7.17;;;3.50;;
22571;SDS011;11452;53.368;14.658;2023-01-01T07:24:25;4.63;;;2.73;;
22571;SDS011;11452;53.368;14.658;2023-01-01T07:29:30;8.67;;;2.70;;
22571;SDS011;11452;53.368;14.658;2023-01-01T07:34:36;3.03;;;2.40;;
22571;SDS011;11452;53.368;14.658;2023-01-01T07:39:42;4.53;;;3.47;;
22571;SDS011;11452;53.368;14.658;2023-01-01T07:44:47;6.53;;;3.20;;
22571;SDS011;11452;53.368;14.658;2023-01-01T07:49:52;6.23;;;3.07;;
22571;SDS011;11452;53.368;14.658;2023-01-01T07:54:58;4.80;;;2.80;;
22571;SDS011;11452;53.368;14.658;2023-01-01T08:00:04;5.57;;;2.80;;
22571;SDS011;11452;53.368;14.658;2023-01-01T08:05:12;3.43;;;2.50;;
22571;SDS011;11452;53.368;14.658;2023-01-01T08:10:19;6.87;;;3.53;;
22571;SDS011;11452;53.368;14.658;2023-01-01T08:15:25;3.43;;;3.10;;
22571;SDS011;11452;53.368;14.658;2023-01-01T08:20:31;6.60;;;3.23;;
22571;SDS011;11452;53.368;14.658;2023-01-01T08:25:37;4.27;;;3.00;;
22571;SDS011;11452;53.368;14.658;2023-01-01T08:30:43;3.13;;;2.50;;
22571;SDS011;11452;53.368;14.658;2023-01-01T08:35:48;6.27;;;2.83;;
22571;SDS011;11452;53.368;14.658;2023-01-01T08:40:56;2.93;;;2.30;;
22571;SDS011;11452;53.368;14.658;2023-01-01T08:46:01;3.43;;;2.87;;
22571;SDS011;11452;53.368;14.658;2023-01-01T08:51:07;5.63;;;3.23;;
22571;SDS011;11452;53.368;14.658;2023-01-01T08:56:14;5.00;;;2.43;;
22571;SDS011;11452;53.368;14.658;2023-01-01T09:01:19;4.70;;;3.03;;
22571;SDS011;11452;53.368;14.658;2023-01-01T09:06:25;4.13;;;2.40;;
22571;SDS011;11452;53.368;14.658;2023-01-01T09:11:30;10.70;;;2.83;;
22571;SDS011;11452;53.368;14.658;2023-01-01T09:16:37;4.00;;;2.90;;
22571;SDS011;11452;53.368;14.658;2023-01-01T09:21:44;5.43;;;2.70;;
22571;SDS011;11452;53.368;14.658;2023-01-01T09:26:49;3.87;;;2.47;;
22571;SDS011;11452;53.368;14.658;2023-01-01T09:31:55;4.03;;;2.67;;
22571;SDS011;11452;53.368;14.658;2023-01-01T09:37:01;5.43;;;2.83;;
22571;SDS011;11452;53.368;14.658;2023-01-01T09:47:39;6.17;;;2.80;;
22571;SDS011;11452;53.368;14.658;2023-01-01T09:52:52;4.80;;;3.00;;
22571;SDS011;11452;53.368;14.658;2023-01-01T09:58:01;5.43;;;2.77;;
22571;SDS011;11452;53.368;14.658;2023-01-01T10:13:35;4.17;;;2.77;;
22571;SDS011;11452;53.368;14.658;2023-01-01T10:18:44;5.97;;;3.57;;
22571;SDS011;11452;53.368;14.658;2023-01-01T10:23:56;3.83;;;2.70;;
22571;SDS011;11452;53.368;14.658;2023-01-01T10:34:20;5.10;;;3.37;;
22571;SDS011;11452;53.368;14.658;2023-01-01T10:39:29;4.30;;;2.73;;
22571;SDS011;11452;53.368;14.658;2023-01-01T10:44:34;6.30;;;3.67;;
22571;SDS011;11452;53.368;14.658;2023-01-01T10:50:16;3.60;;;3.00;;
22571;SDS011;11452;53.368;14.658;2023-01-01T10:55:01;4.07;;;3.00;;
22571;SDS011;11452;53.368;14.658;2023-01-01T11:00:10;6.20;;;2.40;;
22571;SDS011;11452;53.368;14.658;2023-01-01T11:05:29;3.63;;;2.90;;
22571;SDS011;11452;53.368;14.658;2023-01-01T11:10:35;4.93;;;3.17;;
22571;SDS011;11452;53.368;14.658;2023-01-01T11:15:40;4.00;;;3.00;;
22571;SDS011;11452;53.368;14.658;2023-01-01T11:20:57;12.17;;;9.30;;
22571;SDS011;11452;53.368;14.658;2023-01-01T11:31:23;8.33;;;6.83;;
22571;SDS011;11452;53.368;14.658;2023-01-01T11:36:32;9.10;;;5.57;;
22571;SDS011;11452;53.368;14.658;2023-01-01T11:41:40;5.27;;;3.17;;
22571;SDS011;11452;53.368;14.658;2023-01-01T11:46:50;5.40;;;3.40;;
22571;SDS011;11452;53.368;14.658;2023-01-01T11:51:56;3.60;;;2.87;;
22571;SDS011;11452;53.368;14.658;2023-01-01T11:57:11;4.93;;;3.10;;
22571;SDS011;11452;53.368;14.658;2023-01-01T12:02:18;5.40;;;3.57;;
22571;SDS011;11452;53.368;14.658;2023-01-01T12:07:32;4.87;;;3.57;;
22571;SDS011;11452;53.368;14.658;2023-01-01T12:12:41;4.97;;;3.27;;
22571;SDS011;11452;53.368;14.658;2023-01-01T12:18:03;3.87;;;2.57;;
22571;SDS011;11452;53.368;14.658;2023-01-01T12:23:06;3.40;;;3.10;;
22571;SDS011;11452;53.368;14.658;2023-01-01T12:28:18;7.10;;;3.53;;
22571;SDS011;11452;53.368;14.658;2023-01-01T12:33:28;5.13;;;3.20;;
22571;SDS011;11452;53.368;14.658;2023-01-01T12:44:04;4.07;;;3.00;;
22571;SDS011;11452;53.368;14.658;2023-01-01T12:59:55;3.87;;;3.03;;
22571;SDS011;11452;53.368;14.658;2023-01-01T13:05:12;6.97;;;3.00;;
22571;SDS011;11452;53.368;14.658;2023-01-01T13:20:54;2.70;;;2.13;;
22571;SDS011;11452;53.368;14.658;2023-01-01T13:36:46;2.83;;;2.23;;
22571;SDS011;11452;53.368;14.658;2023-01-01T13:41:52;3.30;;;2.40;;
22571;SDS011;11452;53.368;14.658;2023-01-01T13:47:01;4.53;;;2.30;;
22571;SDS011;11452;53.368;14.658;2023-01-01T14:03:07;3.07;;;2.30;;
22571;SDS011;11452;53.368;14.658;2023-01-01T14:13:40;3.53;;;2.30;;
22571;SDS011;11452;53.368;14.658;2023-01-01T14:18:46;3.13;;;2.30;;
22571;SDS011;11452;53.368;14.658;2023-01-01T14:23:54;4.07;;;2.33;;
22571;SDS011;11452;53.368;14.658;2023-01-01T14:29:04;3.23;;;2.00;;
22571;SDS011;11452;53.368;14.658;2023-01-01T14:34:22;3.07;;;2.77;;
22571;SDS011;11452;53.368;14.658;2023-01-01T14:39:34;4.90;;;1.93;;
22571;SDS011;11452;53.368;14.658;2023-01-01T14:44:48;2.07;;;1.87;;
22571;SDS011;11452;53.368;14.658;2023-01-01T14:49:48;2.57;;;2.03;;
22571;SDS011;11452;53.368;14.658;2023-01-01T14:54:56;3.37;;;1.83;;
22571;SDS011;11452;53.368;14.658;2023-01-01T15:00:14;2.43;;;1.80;;
22571;SDS011;11452;53.368;14.658;2023-01-01T15:05:29;2.07;;;1.50;;
22571;SDS011;11452;53.368;14.658;2023-01-01T15:10:38;1.90;;;1.50;;
22571;SDS011;11452;53.368;14.658;2023-01-01T15:15:44;1.40;;;1.30;;
22571;SDS011;11452;53.368;14.658;2023-01-01T15:20:52;3.03;;;1.60;;
22571;SDS011;11452;53.368;14.658;2023-01-01T15:25:59;2.23;;;1.60;;
22571;SDS011;11452;53.368;14.658;2023-01-01T15:31:05;1.50;;;1.40;;
22571;SDS011;11452;53.368;14.658;2023-01-01T15:36:11;1.97;;;1.57;;
22571;SDS011;11452;53.368;14.658;2023-01-01T15:41:40;2.57;;;1.57;;
22571;SDS011;11452;53.368;14.658;2023-01-01T15:46:48;2.47;;;2.10;;
22571;SDS011;11452;53.368;14.658;2023-01-01T15:52:02;3.07;;;1.80;;
22571;SDS011;11452;53.368;14.658;2023-01-01T15:57:18;3.13;;;1.80;;
22571;SDS011;11452;53.368;14.658;2023-01-01T16:02:30;2.47;;;1.60;;
22571;SDS011;11452;53.368;14.658;2023-01-01T16:07:39;2.77;;;1.50;;
22571;SDS011;11452;53.368;14.658;2023-01-01T16:12:45;2.00;;;1.47;;
22571;SDS011;11452;53.368;14.658;2023-01-01T16:17:51;1.73;;;1.30;;
22571;SDS011;11452;53.368;14.658;2023-01-01T16:22:57;1.30;;;1.20;;
22571;SDS011;11452;53.368;14.658;2023-01-01T16:28:03;1.20;;;1.03;;
22571;SDS011;11452;53.368;14.658;2023-01-01T16:33:11;1.77;;;1.20;;
22571;SDS011;11452;53.368;14.658;2023-01-01T16:38:20;1.33;;;1.20;;
22571;SDS011;11452;53.368;14.658;2023-01-01T16:43:26;3.20;;;1.27;;
22571;SDS011;11452;53.368;14.658;2023-01-01T16:48:31;1.30;;;0.90;;
22571;SDS011;11452;53.368;14.658;2023-01-01T16:53:37;1.77;;;0.97;;
22571;SDS011;11452;53.368;14.658;2023-01-01T16:58:43;3.47;;;1.10;;
22571;SDS011;11452;53.368;14.658;2023-01-01T17:03:52;1.40;;;0.87;;
22571;SDS011;11452;53.368;14.658;2023-01-01T17:08:58;0.97;;;0.60;;
22571;SDS011;11452;53.368;14.658;2023-01-01T17:14:04;2.50;;;0.90;;
22571;SDS011;11452;53.368;14.658;2023-01-01T17:19:10;1.70;;;1.10;;
22571;SDS011;11452;53.368;14.658;2023-01-01T17:24:18;1.20;;;0.70;;
22571;SDS011;11452;53.368;14.658;2023-01-01T17:29:24;2.20;;;0.90;;
22571;SDS011;11452;53.368;14.658;2023-01-01T17:34:30;2.00;;;0.80;;
22571;SDS011;11452;53.368;14.658;2023-01-01T17:39:35;2.40;;;1.10;;
22571;SDS011;11452;53.368;14.658;2023-01-01T17:44:42;4.03;;;1.20;;
22571;SDS011;11452;53.368;14.658;2023-01-01T17:49:47;2.50;;;0.80;;
22571;SDS011;11452;53.368;14.658;2023-01-01T17:54:53;2.33;;;0.77;;
22571;SDS011;11452;53.368;14.658;2023-01-01T17:59:58;2.93;;;1.40;;
22571;SDS011;11452;53.368;14.658;2023-01-01T18:05:07;5.00;;;1.07;;
22571;SDS011;11452;53.368;14.658;2023-01-01T18:10:13;2.10;;;1.10;;
22571;SDS011;11452;53.368;14.658;2023-01-01T18:15:19;3.83;;;1.40;;
22571;SDS011;11452;53.368;14.658;2023-01-01T18:20:25;3.70;;;1.77;;
22571;SDS011;11452;53.368;14.658;2023-01-01T18:25:30;4.60;;;1.50;;
22571;SDS011;11452;53.368;14.658;2023-01-01T18:30:36;2.97;;;1.37;;
22571;SDS011;11452;53.368;14.658;2023-01-01T18:35:41;3.10;;;1.47;;
22571;SDS011;11452;53.368;14.658;2023-01-01T18:40:55;2.63;;;2.07;;
22571;SDS011;11452;53.368;14.658;2023-01-01T18:45:56;2.93;;;2.13;;
22571;SDS011;11452;53.368;14.658;2023-01-01T18:51:01;1.87;;;1.20;;
22571;SDS011;11452;53.368;14.658;2023-01-01T18:56:15;1.70;;;1.60;;
22571;SDS011;11452;53.368;14.658;2023-01-01T19:01:21;3.00;;;1.80;;
22571;SDS011;11452;53.368;14.658;2023-01-01T19:06:29;2.23;;;1.10;;
22571;SDS011;11452;53.368;14.658;2023-01-01T19:11:36;2.03;;;1.27;;
22571;SDS011;11452;53.368;14.658;2023-01-01T19:16:42;3.33;;;1.40;;
22571;SDS011;11452;53.368;14.658;2023-01-01T19:21:51;2.43;;;1.40;;
22571;SDS011;11452;53.368;14.658;2023-01-01T19:27:05;6.93;;;1.33;;
22571;SDS011;11452;53.368;14.658;2023-01-01T19:32:16;1.30;;;1.20;;
22571;SDS011;11452;53.368;14.658;2023-01-01T19:37:23;1.60;;;1.20;;
22571;SDS011;11452;53.368;14.658;2023-01-01T19:42:28;4.40;;;1.70;;
22571;SDS011;11452;53.368;14.658;2023-01-01T19:47:34;1.63;;;1.20;;
22571;SDS011;11452;53.368;14.658;2023-01-01T19:52:41;2.50;;;1.37;;
22571;SDS011;11452;53.368;14.658;2023-01-01T19:57:47;2.13;;;1.37;;
22571;SDS011;11452;53.368;14.658;2023-01-01T20:02:56;6.37;;;1.97;;
22571;SDS011;11452;53.368;14.658;2023-01-01T20:08:04;2.10;;;1.50;;
22571;SDS011;11452;53.368;14.658;2023-01-01T20:13:11;2.90;;;1.60;;
22571;SDS011;11452;53.368;14.658;2023-01-01T20:18:19;3.43;;;1.70;;
22571;SDS011;11452;53.368;14.658;2023-01-01T20:23:24;3.93;;;1.47;;
22571;SDS011;11452;53.368;14.658;2023-01-01T20:28:31;4.33;;;2.13;;
22571;SDS011;11452;53.368;14.658;2023-01-01T20:33:57;3.17;;;1.30;;
22571;SDS011;11452;53.368;14.658;2023-01-01T20:39:03;2.87;;;1.40;;
22571;SDS011;11452;53.368;14.658;2023-01-01T20:44:08;2.73;;;1.50;;
22571;SDS011;11452;53.368;14.658;2023-01-01T20:49:14;2.40;;;1.47;;
22571;SDS011;11452;53.368;14.658;2023-01-01T20:54:21;3.50;;;1.40;;
22571;SDS011;11452;53.368;14.658;2023-01-01T20:59:26;3.93;;;1.70;;
22571;SDS011;11452;53.368;14.658;2023-01-01T21:04:35;1.93;;;1.17;;
22571;SDS011;11452;53.368;14.658;2023-01-01T21:09:42;2.67;;;1.43;;
22571;SDS011;11452;53.368;14.658;2023-01-01T21:14:47;2.40;;;1.00;;
22571;SDS011;11452;53.368;14.658;2023-01-01T21:19:55;3.17;;;1.20;;
22571;SDS011;11452;53.368;14.658;2023-01-01T21:25:06;1.80;;;1.10;;
22571;SDS011;11452;53.368;14.658;2023-01-01T21:30:12;4.33;;;1.70;;
22571;SDS011;11452;53.368;14.658;2023-01-01T21:35:21;1.63;;;0.90;;
22571;SDS011;11452;53.368;14.658;2023-01-01T21:40:50;1.53;;;1.37;;
22571;SDS011;11452;53.368;14.658;2023-01-01T21:46:02;2.77;;;1.20;;
22571;SDS011;11452;53.368;14.658;2023-01-01T21:51:18;3.17;;;1.23;;
22571;SDS011;11452;53.368;14.658;2023-01-01T21:56:34;2.50;;;1.40;;
22571;SDS011;11452;53.368;14.658;2023-01-01T22:01:42;2.43;;;1.80;;
22571;SDS011;11452;53.368;14.658;2023-01-01T22:06:49;2.73;;;1.50;;
22571;SDS011;11452;53.368;14.658;2023-01-01T22:17:22;2.80;;;1.40;;
22571;SDS011;11452;53.368;14.658;2023-01-01T22:22:33;2.23;;;1.57;;
22571;SDS011;11452;53.368;14.658;2023-01-01T22:27:39;2.10;;;1.40;;
22571;SDS011;11452;53.368;14.658;2023-01-01T22:32:49;3.00;;;1.70;;
22571;SDS011;11452;53.368;14.658;2023-01-01T22:38:00;3.27;;;1.40;;
22571;SDS011;11452;53.368;14.658;2023-01-01T22:48:17;3.63;;;1.70;;
22571;SDS011;11452;53.368;14.658;2023-01-01T22:53:39;4.40;;;1.67;;
22571;SDS011;11452;53.368;14.658;2023-01-01T22:58:44;3.53;;;1.77;;
22571;SDS011;11452;53.368;14.658;2023-01-01T23:03:52;2.87;;;1.70;;
22571;SDS011;11452;53.368;14.658;2023-01-01T23:08:59;2.30;;;1.83;;
22571;SDS011;11452;53.368;14.658;2023-01-01T23:14:07;3.43;;;1.60;;
22571;SDS011;11452;53.368;14.658;2023-01-01T23:19:31;6.90;;;2.30;;
22571;SDS011;11452;53.368;14.658;2023-01-01T23:24:37;3.40;;;2.50;;
22571;SDS011;11452;53.368;14.658;2023-01-01T23:29:43;3.83;;;2.20;;
22571;SDS011;11452;53.368;14.658;2023-01-01T23:34:50;3.23;;;2.47;;
22571;SDS011;11452;53.368;14.658;2023-01-01T23:39:56;4.37;;;2.40;;
22571;SDS011;11452;53.368;14.658;2023-01-01T23:45:02;6.50;;;3.03;;
22571;SDS011;11452;53.368;14.658;2023-01-01T23:50:08;7.27;;;2.37;;
22571;SDS011;11452;53.368;14.658;2023-01-01T23:55:15;4.97;;;2.67;;
